Terminal Aerodrome Forecast
Issued by NWS

Current Version | Previous Version | Text Only | Print | Product List | Glossary On
Versions: 1 2 3 4 5 6 7 8 9 10 11 12 13 14 15 16 17 18 19 20 21 22 23 24 25 26 27 28 29 30 31 32 33 34 35 36 37 38 39
000
FTUS46 KEKA 281358 CCC
TAFACV
TAF COR
KACV 281358Z 2812/2912 16015G20KT P6SM OVC050
     FM281500 17012KT 6SM -RA BR OVC035
     FM281800 17012KT 4SM RA BR OVC030
     FM282000 16005KT 3SM -RA OVC035
     FM290200 17006KT 4SM -RA OVC025=

USA.gov is the U.S. government's official web portal to all federal, state and local government web resources and services.